sensor_id;sensor_type;location;lat;lon;timestamp;pressure;altitude;pressure_sealevel;temperature;humidity
50702;BME280;36670;50.094;8.496;2024-02-15T00:00:16;100725.16;;;14.32;68.50
50702;BME280;36670;50.094;8.496;2024-02-15T00:02:43;100722.03;;;14.24;69.07
50702;BME280;36670;50.094;8.496;2024-02-15T00:05:12;100724.06;;;14.33;68.51
50702;BME280;36670;50.094;8.496;2024-02-15T00:07:40;100728.00;;;14.05;69.85
50702;BME280;36670;50.094;8.496;2024-02-15T00:10:05;100722.75;;;14.09;69.19
50702;BME280;36670;50.094;8.496;2024-02-15T00:12:31;100732.34;;;14.28;68.84
50702;BME280;36670;50.094;8.496;2024-02-15T00:14:57;100734.63;;;14.42;69.34
50702;BME280;36670;50.094;8.496;2024-02-15T00:17:24;100734.69;;;14.47;68.45
50702;BME280;36670;50.094;8.496;2024-02-15T00:19:50;100735.84;;;14.56;68.17
50702;BME280;36670;50.094;8.496;2024-02-15T00:22:15;100732.59;;;14.64;67.84
50702;BME280;36670;50.094;8.496;2024-02-15T00:24:41;100724.84;;;14.72;68.40
50702;BME280;36670;50.094;8.496;2024-02-15T00:27:08;100729.59;;;14.76;68.09
50702;BME280;36670;50.094;8.496;2024-02-15T00:29:33;100730.19;;;14.78;68.47
50702;BME280;36670;50.094;8.496;2024-02-15T00:32:00;100728.28;;;14.94;67.50
50702;BME280;36670;50.094;8.496;2024-02-15T00:34:25;100727.50;;;14.99;66.84
50702;BME280;36670;50.094;8.496;2024-02-15T00:36:52;100719.56;;;14.70;67.75
50702;BME280;36670;50.094;8.496;2024-02-15T00:39:17;100738.69;;;14.61;68.39
50702;BME280;36670;50.094;8.496;2024-02-15T00:41:43;100733.44;;;14.65;68.48
50702;BME280;36670;50.094;8.496;2024-02-15T00:44:10;100738.72;;;14.66;67.97
50702;BME280;36670;50.094;8.496;2024-02-15T00:46:36;100733.84;;;14.46;68.72
50702;BME280;36670;50.094;8.496;2024-02-15T00:49:02;100735.91;;;14.61;68.18
50702;BME280;36670;50.094;8.496;2024-02-15T00:51:29;100739.25;;;14.63;67.56
50702;BME280;36670;50.094;8.496;2024-02-15T00:53:54;100739.19;;;14.58;68.06
50702;BME280;36670;50.094;8.496;2024-02-15T00:56:19;100739.19;;;14.58;68.45
50702;BME280;36670;50.094;8.496;2024-02-15T00:58:45;100737.00;;;14.60;68.11
50702;BME280;36670;50.094;8.496;2024-02-15T01:01:10;100735.19;;;14.39;68.39
50702;BME280;36670;50.094;8.496;2024-02-15T01:03:36;100735.28;;;14.11;68.96
50702;BME280;36670;50.094;8.496;2024-02-15T01:06:01;100729.28;;;14.30;68.72
50702;BME280;36670;50.094;8.496;2024-02-15T01:08:27;100737.47;;;14.47;68.82
50702;BME280;36670;50.094;8.496;2024-02-15T01:10:53;100742.78;;;14.54;68.50
50702;BME280;36670;50.094;8.496;2024-02-15T01:13:18;100741.41;;;14.56;67.57
50702;BME280;36670;50.094;8.496;2024-02-15T01:15:44;100741.22;;;14.63;67.62
50702;BME280;36670;50.094;8.496;2024-02-15T01:18:11;100735.72;;;14.36;68.39
50702;BME280;36670;50.094;8.496;2024-02-15T01:20:36;100733.97;;;14.24;68.55
50702;BME280;36670;50.094;8.496;2024-02-15T01:23:02;100738.53;;;14.03;69.03
50702;BME280;36670;50.094;8.496;2024-02-15T01:25:27;100732.31;;;14.23;68.84
50702;BME280;36670;50.094;8.496;2024-02-15T01:27:53;100728.31;;;14.09;69.69
50702;BME280;36670;50.094;8.496;2024-02-15T01:30:19;100733.00;;;14.08;69.85
50702;BME280;36670;50.094;8.496;2024-02-15T01:32:44;100731.91;;;14.09;69.85
50702;BME280;36670;50.094;8.496;2024-02-15T01:35:09;100731.59;;;14.00;69.80
50702;BME280;36670;50.094;8.496;2024-02-15T01:37:35;100737.03;;;13.90;69.94
50702;BME280;36670;50.094;8.496;2024-02-15T01:40:02;100732.19;;;13.75;70.68
50702;BME280;36670;50.094;8.496;2024-02-15T01:42:27;100734.53;;;13.89;70.26
50702;BME280;36670;50.094;8.496;2024-02-15T01:44:53;100732.28;;;13.86;69.79
50702;BME280;36670;50.094;8.496;2024-02-15T01:47:18;100726.16;;;13.83;69.79
50702;BME280;36670;50.094;8.496;2024-02-15T01:49:48;100725.03;;;13.79;70.29
50702;BME280;36670;50.094;8.496;2024-02-15T01:52:15;100733.09;;;13.81;69.98
50702;BME280;36670;50.094;8.496;2024-02-15T01:54:42;100720.25;;;13.75;70.59
50702;BME280;36670;50.094;8.496;2024-02-15T01:57:08;100724.38;;;13.72;70.11
50702;BME280;36670;50.094;8.496;2024-02-15T01:59:34;100721.88;;;13.71;70.86
50702;BME280;36670;50.094;8.496;2024-02-15T02:02:00;100722.09;;;13.96;69.49
50702;BME280;36670;50.094;8.496;2024-02-15T02:04:26;100726.41;;;14.14;69.47
50702;BME280;36670;50.094;8.496;2024-02-15T02:06:51;100721.56;;;13.99;69.85
50702;BME280;36670;50.094;8.496;2024-02-15T02:09:21;100728.13;;;13.56;70.21
50702;BME280;36670;50.094;8.496;2024-02-15T02:11:47;100726.81;;;13.63;70.20
50702;BME280;36670;50.094;8.496;2024-02-15T02:14:13;100716.09;;;13.45;71.38
50702;BME280;36670;50.094;8.496;2024-02-15T02:16:39;100720.50;;;13.68;70.88
50702;BME280;36670;50.094;8.496;2024-02-15T02:19:05;100731.41;;;13.80;69.96
50702;BME280;36670;50.094;8.496;2024-02-15T02:21:34;100726.94;;;13.79;70.09
50702;BME280;36670;50.094;8.496;2024-02-15T02:24:03;100730.88;;;13.83;69.63
50702;BME280;36670;50.094;8.496;2024-02-15T02:26:34;100723.69;;;13.87;70.04
50702;BME280;36670;50.094;8.496;2024-02-15T02:29:00;100723.75;;;13.92;70.29
50702;BME280;36670;50.094;8.496;2024-02-15T02:31:34;100727.78;;;14.12;69.13
50702;BME280;36670;50.094;8.496;2024-02-15T02:34:00;100720.09;;;14.24;69.60
50702;BME280;36670;50.094;8.496;2024-02-15T02:36:26;100716.41;;;14.13;69.00
50702;BME280;36670;50.094;8.496;2024-02-15T02:38:52;100713.28;;;14.05;69.25
50702;BME280;36670;50.094;8.496;2024-02-15T02:41:17;100710.50;;;14.05;69.78
50702;BME280;36670;50.094;8.496;2024-02-15T02:43:44;100705.94;;;14.26;68.84
50702;BME280;36670;50.094;8.496;2024-02-15T02:46:10;100715.38;;;14.25;69.21
50702;BME280;36670;50.094;8.496;2024-02-15T02:48:37;100717.09;;;14.36;68.55
50702;BME280;36670;50.094;8.496;2024-02-15T02:51:02;100727.81;;;14.17;69.25
50702;BME280;36670;50.094;8.496;2024-02-15T02:53:29;100720.38;;;14.23;68.97
50702;BME280;36670;50.094;8.496;2024-02-15T02:55:56;100717.06;;;14.26;69.10
50702;BME280;36670;50.094;8.496;2024-02-15T02:58:22;100712.53;;;14.14;68.63
50702;BME280;36670;50.094;8.496;2024-02-15T03:00:48;100721.31;;;14.01;69.27
50702;BME280;36670;50.094;8.496;2024-02-15T03:03:15;100717.69;;;14.00;69.27
50702;BME280;36670;50.094;8.496;2024-02-15T03:05:40;100714.59;;;13.97;69.41
50702;BME280;36670;50.094;8.496;2024-02-15T03:08:08;100716.00;;;13.99;69.36
50702;BME280;36670;50.094;8.496;2024-02-15T03:10:33;100703.28;;;14.04;69.47
50702;BME280;36670;50.094;8.496;2024-02-15T03:12:59;100705.44;;;13.96;69.43
50702;BME280;36670;50.094;8.496;2024-02-15T03:15:25;100705.34;;;14.19;68.99
50702;BME280;36670;50.094;8.496;2024-02-15T03:17:50;100709.44;;;14.11;69.22
50702;BME280;36670;50.094;8.496;2024-02-15T03:20:16;100709.72;;;14.09;68.25
50702;BME280;36670;50.094;8.496;2024-02-15T03:22:53;100704.19;;;14.14;68.48
50702;BME280;36670;50.094;8.496;2024-02-15T03:25:19;100699.28;;;14.27;68.23
50702;BME280;36670;50.094;8.496;2024-02-15T03:27:44;100700.66;;;14.24;68.83
50702;BME280;36670;50.094;8.496;2024-02-15T03:30:10;100687.97;;;14.39;68.30
50702;BME280;36670;50.094;8.496;2024-02-15T03:32:36;100692.47;;;14.50;67.73
50702;BME280;36670;50.094;8.496;2024-02-15T03:35:02;100694.69;;;14.48;67.60
50702;BME280;36670;50.094;8.496;2024-02-15T03:37:28;100697.56;;;14.21;68.01
50702;BME280;36670;50.094;8.496;2024-02-15T03:39:54;100700.47;;;13.98;69.44
50702;BME280;36670;50.094;8.496;2024-02-15T03:42:19;100702.25;;;14.15;69.13
50702;BME280;36670;50.094;8.496;2024-02-15T03:44:45;100702.03;;;14.22;68.90
50702;BME280;36670;50.094;8.496;2024-02-15T03:47:13;100706.84;;;14.37;68.11
50702;BME280;36670;50.094;8.496;2024-02-15T03:49:40;100704.84;;;14.32;68.64
50702;BME280;36670;50.094;8.496;2024-02-15T03:52:07;100702.13;;;14.37;67.92
50702;BME280;36670;50.094;8.496;2024-02-15T03:54:35;100698.47;;;14.31;68.63
50702;BME280;36670;50.094;8.496;2024-02-15T03:57:01;100708.50;;;14.32;68.35
50702;BME280;36670;50.094;8.496;2024-02-15T03:59:26;100705.63;;;14.22;69.06
50702;BME280;36670;50.094;8.496;2024-02-15T04:01:55;100704.25;;;14.25;68.53
50702;BME280;36670;50.094;8.496;2024-02-15T04:04:22;100703.06;;;14.10;68.79
50702;BME280;36670;50.094;8.496;2024-02-15T04:06:50;100703.72;;;14.28;67.76
50702;BME280;36670;50.094;8.496;2024-02-15T04:09:19;100700.44;;;14.31;67.78
50702;BME280;36670;50.094;8.496;2024-02-15T04:11:46;100698.09;;;14.17;67.99
50702;BME280;36670;50.094;8.496;2024-02-15T04:14:15;100698.97;;;14.23;67.84
50702;BME280;36670;50.094;8.496;2024-02-15T04:16:41;100700.97;;;14.33;68.08
50702;BME280;36670;50.094;8.496;2024-02-15T04:19:09;100699.25;;;14.22;68.23
50702;BME280;36670;50.094;8.496;2024-02-15T04:21:35;100700.16;;;14.32;67.54
50702;BME280;36670;50.094;8.496;2024-02-15T04:24:00;100704.13;;;14.47;67.28
50702;BME280;36670;50.094;8.496;2024-02-15T04:26:26;100699.66;;;14.46;67.29
50702;BME280;36670;50.094;8.496;2024-02-15T04:28:56;100704.97;;;14.47;67.77
50702;BME280;36670;50.094;8.496;2024-02-15T04:31:22;100702.44;;;14.46;67.11
50702;BME280;36670;50.094;8.496;2024-02-15T04:33:55;100691.91;;;14.05;67.97
50702;BME280;36670;50.094;8.496;2024-02-15T04:36:21;100699.72;;;13.76;68.84
50702;BME280;36670;50.094;8.496;2024-02-15T04:38:51;100700.94;;;13.58;69.73
50702;BME280;36670;50.094;8.496;2024-02-15T04:41:20;100697.22;;;13.47;69.29
50702;BME280;36670;50.094;8.496;2024-02-15T04:43:51;100705.13;;;13.88;69.22
50702;BME280;36670;50.094;8.496;2024-02-15T04:46:19;100689.72;;;14.07;68.28
50702;BME280;36670;50.094;8.496;2024-02-15T04:48:50;100695.66;;;14.21;68.56
50702;BME280;36670;50.094;8.496;2024-02-15T04:51:16;100687.88;;;14.23;67.89
50702;BME280;36670;50.094;8.496;2024-02-15T04:53:42;100689.59;;;13.92;68.34
50702;BME280;36670;50.094;8.496;2024-02-15T04:56:07;100691.13;;;13.77;68.78
50702;BME280;36670;50.094;8.496;2024-02-15T04:58:39;100694.25;;;13.86;68.43
50702;BME280;36670;50.094;8.496;2024-02-15T05:01:14;100682.16;;;13.97;68.54
50702;BME280;36670;50.094;8.496;2024-02-15T05:03:41;100690.00;;;14.06;68.43
50702;BME280;36670;50.094;8.496;2024-02-15T05:06:07;100680.97;;;13.88;68.65
50702;BME280;36670;50.094;8.496;2024-02-15T05:08:33;100682.97;;;13.98;68.65
50702;BME280;36670;50.094;8.496;2024-02-15T05:11:00;100683.03;;;14.03;68.69
50702;BME280;36670;50.094;8.496;2024-02-15T05:13:26;100687.75;;;14.08;68.61
50702;BME280;36670;50.094;8.496;2024-02-15T05:15:51;100673.88;;;14.08;68.42
50702;BME280;36670;50.094;8.496;2024-02-15T05:18:17;100672.47;;;14.05;68.47
50702;BME280;36670;50.094;8.496;2024-02-15T05:20:43;100677.47;;;14.08;67.99
50702;BME280;36670;50.094;8.496;2024-02-15T05:23:09;100679.16;;;14.09;68.22
50702;BME280;36670;50.094;8.496;2024-02-15T05:25:34;100686.19;;;14.22;67.99
50702;BME280;36670;50.094;8.496;2024-02-15T05:28:01;100685.41;;;14.27;67.69
50702;BME280;36670;50.094;8.496;2024-02-15T05:30:26;100678.66;;;14.17;67.42
50702;BME280;36670;50.094;8.496;2024-02-15T05:32:52;100679.75;;;14.16;67.91
50702;BME280;36670;50.094;8.496;2024-02-15T05:35:18;100678.88;;;14.06;68.20
50702;BME280;36670;50.094;8.496;2024-02-15T05:37:44;100683.09;;;14.13;67.89
50702;BME280;36670;50.094;8.496;2024-02-15T05:40:11;100691.38;;;14.08;67.64
50702;BME280;36670;50.094;8.496;2024-02-15T05:42:42;100674.13;;;13.69;68.99
50702;BME280;36670;50.094;8.496;2024-02-15T05:47:52;100676.56;;;13.92;68.46
50702;BME280;36670;50.094;8.496;2024-02-15T05:50:17;100682.06;;;13.87;68.45
50702;BME280;36670;50.094;8.496;2024-02-15T05:52:46;100682.75;;;13.72;68.55
50702;BME280;36670;50.094;8.496;2024-02-15T05:55:12;100685.72;;;13.60;68.68
50702;BME280;36670;50.094;8.496;2024-02-15T05:57:45;100685.31;;;13.46;69.08
50702;BME280;36670;50.094;8.496;2024-02-15T06:00:11;100682.91;;;13.33;69.72
50702;BME280;36670;50.094;8.496;2024-02-15T06:02:36;100680.03;;;13.45;69.76
50702;BME280;36670;50.094;8.496;2024-02-15T06:05:02;100673.66;;;13.44;69.72
50702;BME280;36670;50.094;8.496;2024-02-15T06:07:29;100678.06;;;13.73;69.00
50702;BME280;36670;50.094;8.496;2024-02-15T06:09:57;100672.03;;;13.81;68.93
50702;BME280;36670;50.094;8.496;2024-02-15T06:12:23;100681.75;;;13.83;69.22
50702;BME280;36670;50.094;8.496;2024-02-15T06:14:48;100679.38;;;13.97;69.20
50702;BME280;36670;50.094;8.496;2024-02-15T06:17:13;100683.53;;;14.00;68.53
50702;BME280;36670;50.094;8.496;2024-02-15T06:19:39;100674.88;;;13.91;68.55
50702;BME280;36670;50.094;8.496;2024-02-15T06:22:05;100678.63;;;13.75;68.89
50702;BME280;36670;50.094;8.496;2024-02-15T06:24:30;100687.81;;;13.48;69.69
50702;BME280;36670;50.094;8.496;2024-02-15T06:26:55;100687.75;;;13.43;69.48
50702;BME280;36670;50.094;8.496;2024-02-15T06:29:25;100694.31;;;13.59;69.67
50702;BME280;36670;50.094;8.496;2024-02-15T06:32:10;100696.06;;;13.38;70.20
50702;BME280;36670;50.094;8.496;2024-02-15T06:34:54;100685.84;;;13.43;70.19
50702;BME280;36670;50.094;8.496;2024-02-15T06:37:54;100690.19;;;13.66;69.81
50702;BME280;36670;50.094;8.496;2024-02-15T06:40:38;100678.66;;;13.80;69.98
50702;BME280;36670;50.094;8.496;2024-02-15T06:43:04;100677.81;;;14.12;69.09
50702;BME280;36670;50.094;8.496;2024-02-15T06:45:29;100675.56;;;14.09;69.39
50702;BME280;36670;50.094;8.496;2024-02-15T06:47:57;100676.72;;;14.18;68.15
50702;BME280;36670;50.094;8.496;2024-02-15T06:50:23;100668.59;;;14.06;68.57
50702;BME280;36670;50.094;8.496;2024-02-15T06:52:48;100673.22;;;14.33;67.80
50702;BME280;36670;50.094;8.496;2024-02-15T06:55:16;100651.72;;;14.13;68.39
50702;BME280;36670;50.094;8.496;2024-02-15T06:57:42;100650.47;;;13.93;68.30
50702;BME280;36670;50.094;8.496;2024-02-15T07:00:10;100633.00;;;13.60;69.02
50702;BME280;36670;50.094;8.496;2024-02-15T07:02:40;100645.19;;;13.59;69.34
50702;BME280;36670;50.094;8.496;2024-02-15T07:05:06;100648.19;;;13.25;69.54
50702;BME280;36670;50.094;8.496;2024-02-15T07:07:31;100664.69;;;13.10;70.53
50702;BME280;36670;50.094;8.496;2024-02-15T07:09:57;100673.91;;;12.93;71.04
50702;BME280;36670;50.094;8.496;2024-02-15T07:12:23;100670.31;;;13.20;70.68
50702;BME280;36670;50.094;8.496;2024-02-15T07:14:48;100664.44;;;13.39;70.07
50702;BME280;36670;50.094;8.496;2024-02-15T07:17:14;100664.25;;;13.78;69.67
50702;BME280;36670;50.094;8.496;2024-02-15T07:19:43;100666.25;;;13.88;68.74
50702;BME280;36670;50.094;8.496;2024-02-15T07:22:09;100671.56;;;13.94;69.01
50702;BME280;36670;50.094;8.496;2024-02-15T07:24:35;100674.03;;;13.91;68.88
50702;BME280;36670;50.094;8.496;2024-02-15T07:27:04;100674.00;;;13.86;69.11
50702;BME280;36670;50.094;8.496;2024-02-15T07:29:29;100676.34;;;13.99;68.56
50702;BME280;36670;50.094;8.496;2024-02-15T07:31:56;100675.84;;;14.07;68.84
50702;BME280;36670;50.094;8.496;2024-02-15T07:34:22;100679.13;;;14.04;68.97
50702;BME280;36670;50.094;8.496;2024-02-15T07:36:50;100683.50;;;14.32;68.33
50702;BME280;36670;50.094;8.496;2024-02-15T07:39:16;100682.41;;;14.33;68.05
50702;BME280;36670;50.094;8.496;2024-02-15T07:41:48;100677.44;;;14.46;68.08
50702;BME280;36670;50.094;8.496;2024-02-15T07:44:15;100677.78;;;14.55;68.04
50702;BME280;36670;50.094;8.496;2024-02-15T07:46:41;100677.47;;;14.51;67.79
50702;BME280;36670;50.094;8.496;2024-02-15T07:49:07;100674.81;;;14.66;68.15
50702;BME280;36670;50.094;8.496;2024-02-15T07:51:33;100684.06;;;14.88;67.36
50702;BME280;36670;50.094;8.496;2024-02-15T07:53:59;100682.41;;;14.92;67.50
50702;BME280;36670;50.094;8.496;2024-02-15T07:56:26;100686.91;;;15.03;66.72
50702;BME280;36670;50.094;8.496;2024-02-15T07:58:52;100691.69;;;15.23;66.78
50702;BME280;36670;50.094;8.496;2024-02-15T08:01:18;100689.22;;;15.37;66.72
50702;BME280;36670;50.094;8.496;2024-02-15T08:03:46;100690.88;;;15.43;66.19
50702;BME280;36670;50.094;8.496;2024-02-15T08:06:13;100693.38;;;15.45;66.47
50702;BME280;36670;50.094;8.496;2024-02-15T08:08:40;100681.72;;;15.43;65.95
50702;BME280;36670;50.094;8.496;2024-02-15T08:11:06;100680.03;;;15.47;66.53
50702;BME280;36670;50.094;8.496;2024-02-15T08:13:45;100685.63;;;15.57;66.04
50702;BME280;36670;50.094;8.496;2024-02-15T08:16:13;100688.41;;;15.47;66.45
50702;BME280;36670;50.094;8.496;2024-02-15T08:18:41;100691.72;;;15.44;66.24
50702;BME280;36670;50.094;8.496;2024-02-15T08:21:09;100680.63;;;15.59;65.78
50702;BME280;36670;50.094;8.496;2024-02-15T08:23:34;100681.19;;;15.72;65.56
50702;BME280;36670;50.094;8.496;2024-02-15T08:25:59;100689.81;;;15.65;65.59
50702;BME280;36670;50.094;8.496;2024-02-15T08:28:25;100687.03;;;15.55;65.77
50702;BME280;36670;50.094;8.496;2024-02-15T08:30:52;100688.41;;;15.73;65.33
50702;BME280;36670;50.094;8.496;2024-02-15T08:33:18;100679.53;;;15.86;65.74
50702;BME280;36670;50.094;8.496;2024-02-15T08:35:44;100688.97;;;16.00;64.82
50702;BME280;36670;50.094;8.496;2024-02-15T08:38:10;100682.03;;;16.03;65.05
50702;BME280;36670;50.094;8.496;2024-02-15T08:40:35;100688.44;;;15.98;64.52
50702;BME280;36670;50.094;8.496;2024-02-15T08:43:00;100680.59;;;15.54;65.35
50702;BME280;36670;50.094;8.496;2024-02-15T08:45:26;100679.22;;;15.51;65.60
50702;BME280;36670;50.094;8.496;2024-02-15T08:47:51;100680.88;;;15.52;65.22
50702;BME280;36670;50.094;8.496;2024-02-15T08:50:19;100680.88;;;15.47;65.27
50702;BME280;36670;50.094;8.496;2024-02-15T08:52:48;100670.56;;;15.32;65.82
50702;BME280;36670;50.094;8.496;2024-02-15T08:55:14;100676.97;;;15.48;65.76
50702;BME280;36670;50.094;8.496;2024-02-15T08:57:40;100677.00;;;15.69;65.85
50702;BME280;36670;50.094;8.496;2024-02-15T09:00:06;100674.22;;;15.69;66.24
50702;BME280;36670;50.094;8.496;2024-02-15T09:02:40;100680.59;;;15.54;65.97
50702;BME280;36670;50.094;8.496;2024-02-15T09:05:07;100682.31;;;15.81;65.58
50702;BME280;36670;50.094;8.496;2024-02-15T09:07:32;100685.69;;;15.88;65.05
50702;BME280;36670;50.094;8.496;2024-02-15T09:09:58;100685.38;;;15.74;65.18
50702;BME280;36670;50.094;8.496;2024-02-15T09:12:23;100684.84;;;15.82;66.02
50702;BME280;36670;50.094;8.496;2024-02-15T09:14:49;100673.66;;;16.03;65.32
50702;BME280;36670;50.094;8.496;2024-02-15T09:17:14;100685.09;;;15.96;64.87
50702;BME280;36670;50.094;8.496;2024-02-15T09:19:39;100681.78;;;15.99;65.16
50702;BME280;36670;50.094;8.496;2024-02-15T09:22:04;100677.28;;;16.19;64.80
50702;BME280;36670;50.094;8.496;2024-02-15T09:24:31;100676.75;;;16.07;64.58
50702;BME280;36670;50.094;8.496;2024-02-15T09:27:02;100674.81;;;15.97;64.64
50702;BME280;36670;50.094;8.496;2024-02-15T09:29:28;100675.03;;;16.26;64.96
50702;BME280;36670;50.094;8.496;2024-02-15T09:31:55;100668.94;;;16.19;64.98
50702;BME280;36670;50.094;8.496;2024-02-15T09:34:20;100669.47;;;16.21;64.88
50702;BME280;36670;50.094;8.496;2024-02-15T09:36:46;100668.06;;;16.34;64.41
50702;BME280;36670;50.094;8.496;2024-02-15T09:39:11;100662.69;;;16.53;63.54
50702;BME280;36670;50.094;8.496;2024-02-15T09:41:39;100663.25;;;16.55;64.36
50702;BME280;36670;50.094;8.496;2024-02-15T09:44:05;100657.34;;;16.72;63.47
50702;BME280;36670;50.094;8.496;2024-02-15T09:46:38;100656.78;;;16.70;63.34
50702;BME280;36670;50.094;8.496;2024-02-15T09:49:07;100657.41;;;16.51;63.08
50702;BME280;36670;50.094;8.496;2024-02-15T09:51:33;100653.88;;;16.20;63.87
50702;BME280;36670;50.094;8.496;2024-02-15T09:53:59;100651.34;;;16.29;64.33
50702;BME280;36670;50.094;8.496;2024-02-15T09:56:26;100640.50;;;16.22;63.93
50702;BME280;36670;50.094;8.496;2024-02-15T09:58:53;100651.97;;;15.90;64.45
50702;BME280;36670;50.094;8.496;2024-02-15T10:01:21;100654.91;;;16.45;63.63
50702;BME280;36670;50.094;8.496;2024-02-15T10:03:49;100648.91;;;16.93;62.79
50702;BME280;36670;50.094;8.496;2024-02-15T10:06:16;100650.22;;;17.11;63.04
50702;BME280;36670;50.094;8.496;2024-02-15T10:08:43;100650.75;;;17.08;63.02
50702;BME280;36670;50.094;8.496;2024-02-15T10:11:09;100655.59;;;16.92;62.49
50702;BME280;36670;50.094;8.496;2024-02-15T10:13:35;100644.84;;;17.19;62.69
50702;BME280;36670;50.094;8.496;2024-02-15T10:16:17;100643.84;;;17.39;62.38
50702;BME280;36670;50.094;8.496;2024-02-15T10:18:46;100639.97;;;16.96;61.11
50702;BME280;36670;50.094;8.496;2024-02-15T10:21:27;100637.03;;;16.56;62.55
50702;BME280;36670;50.094;8.496;2024-02-15T10:24:05;100632.19;;;16.82;62.45
50702;BME280;36670;50.094;8.496;2024-02-15T10:26:31;100633.03;;;16.83;61.83
50702;BME280;36670;50.094;8.496;2024-02-15T10:29:10;100632.56;;;17.20;61.98
50702;BME280;36670;50.094;8.496;2024-02-15T10:31:40;100627.50;;;17.28;61.64
50702;BME280;36670;50.094;8.496;2024-02-15T10:34:17;100631.78;;;17.15;61.71
50702;BME280;36670;50.094;8.496;2024-02-15T10:36:44;100619.66;;;17.30;61.30
50702;BME280;36670;50.094;8.496;2024-02-15T10:39:14;100624.84;;;17.02;61.69
50702;BME280;36670;50.094;8.496;2024-02-15T10:41:52;100627.94;;;17.00;61.50
50702;BME280;36670;50.094;8.496;2024-02-15T10:44:23;100621.41;;;17.20;60.53
50702;BME280;36670;50.094;8.496;2024-02-15T10:46:52;100620.75;;;16.89;61.20
50702;BME280;36670;50.094;8.496;2024-02-15T10:49:19;100614.06;;;16.85;61.52
50702;BME280;36670;50.094;8.496;2024-02-15T10:51:50;100613.56;;;17.22;61.49
50702;BME280;36670;50.094;8.496;2024-02-15T10:54:23;100618.25;;;17.32;61.58
50702;BME280;36670;50.094;8.496;2024-02-15T10:56:53;100606.94;;;17.53;61.55
50702;BME280;36670;50.094;8.496;2024-02-15T10:59:24;100605.22;;;17.57;60.92
50702;BME280;36670;50.094;8.496;2024-02-15T11:01:58;100603.84;;;17.54;60.45
50702;BME280;36670;50.094;8.496;2024-02-15T11:04:25;100601.47;;;17.72;61.21
50702;BME280;36670;50.094;8.496;2024-02-15T11:06:58;100592.38;;;17.85;60.70
50702;BME280;36670;50.094;8.496;2024-02-15T11:09:24;100592.28;;;18.25;59.59
50702;BME280;36670;50.094;8.496;2024-02-15T11:11:54;100582.09;;;18.10;58.84
50702;BME280;36670;50.094;8.496;2024-02-15T11:14:23;100584.00;;;18.39;59.27
50702;BME280;36670;50.094;8.496;2024-02-15T11:16:49;100574.78;;;18.38;58.72
50702;BME280;36670;50.094;8.496;2024-02-15T11:22:08;100577.19;;;18.26;59.28
50702;BME280;36670;50.094;8.496;2024-02-15T11:24:36;100573.22;;;18.51;58.74
50702;BME280;36670;50.094;8.496;2024-02-15T11:27:03;100569.19;;;18.38;58.34
50702;BME280;36670;50.094;8.496;2024-02-15T11:32:49;100566.56;;;18.23;57.43
50702;BME280;36670;50.094;8.496;2024-02-15T11:35:24;100553.19;;;18.44;58.28
50702;BME280;36670;50.094;8.496;2024-02-15T11:41:05;100540.38;;;18.81;56.75
50702;BME280;36670;50.094;8.496;2024-02-15T11:46:20;100538.19;;;18.78;57.41
50702;BME280;36670;50.094;8.496;2024-02-15T11:48:48;100528.66;;;18.60;56.99
50702;BME280;36670;50.094;8.496;2024-02-15T11:51:30;100527.06;;;18.54;56.51
50702;BME280;36670;50.094;8.496;2024-02-15T11:54:04;100529.88;;;18.54;57.35
50702;BME280;36670;50.094;8.496;2024-02-15T11:56:55;100521.38;;;18.59;56.01
50702;BME280;36670;50.094;8.496;2024-02-15T11:59:44;100521.38;;;18.59;56.36
50702;BME280;36670;50.094;8.496;2024-02-15T12:02:38;100513.09;;;18.54;56.54
50702;BME280;36670;50.094;8.496;2024-02-15T12:05:21;100504.94;;;18.96;56.35
50702;BME280;36670;50.094;8.496;2024-02-15T12:08:05;100506.19;;;18.84;56.29
50702;BME280;36670;50.094;8.496;2024-02-15T12:11:01;100514.00;;;19.06;55.59
50702;BME280;36670;50.094;8.496;2024-02-15T12:13:52;100508.06;;;19.27;55.38
50702;BME280;36670;50.094;8.496;2024-02-15T12:16:36;100498.78;;;19.59;55.42
50702;BME280;36670;50.094;8.496;2024-02-15T12:19:20;100498.91;;;19.21;54.89
50702;BME280;36670;50.094;8.496;2024-02-15T12:21:46;100492.44;;;19.54;54.91
50702;BME280;36670;50.094;8.496;2024-02-15T12:24:12;100485.34;;;19.75;54.48
50702;BME280;36670;50.094;8.496;2024-02-15T12:26:39;100490.53;;;19.68;54.52
50702;BME280;36670;50.094;8.496;2024-02-15T12:29:06;100494.41;;;19.39;54.88
50702;BME280;36670;50.094;8.496;2024-02-15T12:31:35;100492.44;;;19.54;54.30
50702;BME280;36670;50.094;8.496;2024-02-15T12:34:04;100494.91;;;19.41;54.97
50702;BME280;36670;50.094;8.496;2024-02-15T12:36:36;100492.56;;;19.49;53.98
50702;BME280;36670;50.094;8.496;2024-02-15T12:39:04;100485.97;;;19.72;54.26
50702;BME280;36670;50.094;8.496;2024-02-15T12:41:38;100488.31;;;19.79;53.93
50702;BME280;36670;50.094;8.496;2024-02-15T12:44:06;100482.47;;;19.34;53.56
50702;BME280;36670;50.094;8.496;2024-02-15T12:46:34;100482.63;;;19.09;54.00
50702;BME280;36670;50.094;8.496;2024-02-15T12:49:31;100480.81;;;19.33;54.18
50702;BME280;36670;50.094;8.496;2024-02-15T12:52:33;100466.81;;;19.33;54.61
50702;BME280;36670;50.094;8.496;2024-02-15T12:55:13;100468.97;;;18.89;54.77
50702;BME280;36670;50.094;8.496;2024-02-15T12:57:40;100463.38;;;19.36;54.42
50702;BME280;36670;50.094;8.496;2024-02-15T13:00:10;100465.72;;;19.15;54.08
50702;BME280;36670;50.094;8.496;2024-02-15T13:02:38;100463.81;;;18.96;54.08
50702;BME280;36670;50.094;8.496;2024-02-15T13:05:05;100466.28;;;18.79;54.27
50702;BME280;36670;50.094;8.496;2024-02-15T13:07:33;100462.38;;;18.99;54.04
50702;BME280;36670;50.094;8.496;2024-02-15T13:09:59;100462.78;;;18.87;54.65